createdAt,value
2018-08-12T00:04:53.358Z,14.3
2018-08-12T00:09:55.626Z,14.3
2018-08-12T00:14:57.908Z,14.3
2018-08-12T00:20:00.191Z,14.3
2018-08-12T00:25:02.682Z,14.4
2018-08-12T00:30:04.890Z,14.4
2018-08-12T00:35:07.065Z,14.6
2018-08-12T00:40:09.429Z,14.6
2018-08-12T00:45:11.641Z,14.6
2018-08-12T00:50:13.988Z,14.6
2018-08-12T00:55:16.169Z,14.6
2018-08-12T01:00:18.509Z,14.6
2018-08-12T01:05:20.874Z,14.6
2018-08-12T01:10:23.183Z,14.6
2018-08-12T01:15:25.391Z,14.6
2018-08-12T01:20:27.691Z,14.5
2018-08-12T01:25:30.049Z,14.5
2018-08-12T01:30:32.275Z,14.4
2018-08-12T01:35:34.569Z,14.4
2018-08-12T01:40:36.923Z,14.5
2018-08-12T01:45:39.274Z,14.5
2018-08-12T01:50:41.437Z,14.5
2018-08-12T01:55:43.853Z,14.5
2018-08-12T02:00:46.007Z,14.6
2018-08-12T02:05:48.419Z,14.6
2018-08-12T02:10:50.696Z,14.6
2018-08-12T02:15:52.838Z,14.6
2018-08-12T02:20:55.177Z,14.6
2018-08-12T02:25:57.588Z,14.6
2018-08-12T02:30:59.780Z,14.6
2018-08-12T02:36:02.109Z,14.7
2018-08-12T02:41:04.332Z,14.7
2018-08-12T02:46:06.706Z,14.7
2018-08-12T02:51:09.075Z,14.7
2018-08-12T02:56:11.274Z,14.7
2018-08-12T03:01:13.609Z,14.7
2018-08-12T03:06:15.766Z,14.7
2018-08-12T03:11:18.254Z,14.8
2018-08-12T03:16:20.469Z,14.8
2018-08-12T03:21:22.742Z,14.8
2018-08-12T03:26:25.078Z,14.8
2018-08-12T03:31:27.449Z,14.9
2018-08-12T03:36:29.619Z,14.9
2018-08-12T03:41:31.938Z,14.9
2018-08-12T03:46:34.251Z,14.9
2018-08-12T03:51:36.520Z,14.9
2018-08-12T03:56:38.858Z,15
2018-08-12T04:01:41.082Z,15
2018-08-12T04:06:43.397Z,15
2018-08-12T04:11:45.695Z,15
2018-08-12T04:16:47.948Z,15
2018-08-12T04:21:50.303Z,15
2018-08-12T04:26:52.560Z,15
2018-08-12T04:31:54.864Z,15
2018-08-12T04:36:57.203Z,15.1
2018-08-12T04:41:59.434Z,15.1
2018-08-12T04:47:01.727Z,15.1
2018-08-12T04:52:04.184Z,15.1
2018-08-12T04:57:06.458Z,15.1
2018-08-12T05:02:09.260Z,15.2
2018-08-12T05:07:10.922Z,15.3
2018-08-12T05:12:13.217Z,15.3
2018-08-12T05:17:15.565Z,15.3
2018-08-12T05:22:17.826Z,15.3
2018-08-12T05:27:20.044Z,15.3
2018-08-12T05:32:22.382Z,15.4
2018-08-12T05:37:24.762Z,15.5
2018-08-12T05:42:27.073Z,15.6
2018-08-12T05:47:29.371Z,15.7
2018-08-12T05:52:31.597Z,15.8
2018-08-12T05:57:33.874Z,16
2018-08-12T06:02:36.167Z,16.200001
2018-08-12T06:07:38.505Z,16.4
2018-08-12T06:12:40.704Z,16.6
2018-08-12T06:17:43.055Z,16.700001
2018-08-12T06:22:45.449Z,16.9
2018-08-12T06:27:47.647Z,17.1
2018-08-12T06:32:49.927Z,17.299999
2018-08-12T06:37:52.385Z,17.4
2018-08-12T06:42:54.433Z,17.6
2018-08-12T06:47:56.744Z,18
2018-08-12T06:52:59.001Z,18.1
2018-08-12T06:58:01.360Z,18.200001
2018-08-12T07:03:03.743Z,18.200001
2018-08-12T07:08:05.995Z,18.299999
2018-08-12T07:13:08.347Z,18.4
2018-08-12T07:18:10.709Z,18.5
2018-08-12T07:23:12.949Z,18.700001
2018-08-12T07:28:15.117Z,19
2018-08-12T07:33:17.555Z,19.4
2018-08-12T07:38:22.683Z,19.9
2018-08-12T07:43:21.959Z,20.4
2018-08-12T07:48:24.379Z,20.799999
2018-08-12T07:53:26.662Z,21
2018-08-12T07:58:28.899Z,21.4
2018-08-12T08:03:31.228Z,21.4
2018-08-12T08:08:33.525Z,21.700001
2018-08-12T08:13:35.722Z,22.1
2018-08-12T08:18:38.067Z,22.4
2018-08-12T08:23:40.298Z,22.5
2018-08-12T08:28:42.670Z,22.5
2018-08-12T08:33:45.166Z,22.6
2018-08-12T08:38:47.325Z,22.5
2018-08-12T08:43:50.813Z,22.799999
2018-08-12T08:48:51.910Z,23.4
2018-08-12T08:53:54.160Z,23.9
2018-08-12T08:58:56.476Z,24.4
2018-08-12T09:03:58.768Z,24.5
2018-08-12T09:09:01.236Z,24.700001
2018-08-12T09:14:03.564Z,25
2018-08-12T09:19:05.563Z,25.299999
2018-08-12T09:24:07.881Z,25.5
2018-08-12T09:29:10.194Z,26
2018-08-12T09:34:12.492Z,26.4
2018-08-12T09:39:14.871Z,26.799999
2018-08-12T09:44:17.131Z,26.700001
2018-08-12T09:49:21.139Z,26.9
2018-08-12T09:54:21.673Z,27.299999
2018-08-12T09:59:23.943Z,27.299999
2018-08-12T10:04:26.371Z,27.799999
2018-08-12T10:09:28.542Z,28.1
2018-08-12T10:14:30.924Z,28
2018-08-12T10:19:33.143Z,28.1
2018-08-12T10:24:35.473Z,28.1
2018-08-12T10:29:37.680Z,28.4
2018-08-12T10:34:40.107Z,28.700001
2018-08-12T10:39:42.346Z,29.200001
2018-08-12T10:44:44.770Z,29.299999
2018-08-12T10:49:46.921Z,29.200001
2018-08-12T10:54:49.220Z,29.5
2018-08-12T10:59:51.575Z,29.9
2018-08-12T11:04:53.755Z,30.200001
2018-08-12T11:09:56.054Z,30.1
2018-08-12T11:14:58.386Z,30
2018-08-12T11:20:00.704Z,30.5
2018-08-12T11:25:02.948Z,30.9
2018-08-12T11:30:05.337Z,31.200001
2018-08-12T11:35:08.683Z,31.200001
2018-08-12T11:40:09.866Z,31.1
2018-08-12T11:45:12.257Z,31.1
2018-08-12T11:50:14.491Z,30.9
2018-08-12T11:55:18.120Z,30.6
2018-08-12T12:00:19.065Z,30.200001
2018-08-12T12:05:21.391Z,31
2018-08-12T12:10:23.718Z,31.1
2018-08-12T12:15:25.989Z,30.6
2018-08-12T12:20:28.647Z,31
2018-08-12T12:25:30.496Z,31.200001
2018-08-12T12:30:32.832Z,31.4
2018-08-12T12:35:35.113Z,31.5
2018-08-12T12:40:37.487Z,32.200001
2018-08-12T12:45:39.741Z,32.700001
2018-08-12T12:50:42.096Z,32.799999
2018-08-12T12:55:44.379Z,32
2018-08-12T13:00:46.657Z,31.5
2018-08-12T13:05:48.933Z,31.6
2018-08-12T13:10:51.143Z,32.200001
2018-08-12T13:15:53.508Z,32.599998
2018-08-12T13:20:55.675Z,32.900002
2018-08-12T13:25:58.150Z,32.5
2018-08-12T13:31:00.421Z,32.400002
2018-08-12T13:36:02.876Z,32.200001
2018-08-12T13:41:05.116Z,32.5
2018-08-12T13:46:07.306Z,32.799999
2018-08-12T13:51:09.435Z,33.099998
2018-08-12T13:56:11.913Z,32.799999
2018-08-12T14:01:14.066Z,32.099998
2018-08-12T14:06:16.462Z,31.700001
2018-08-12T14:11:18.740Z,31.799999
2018-08-12T14:16:21.020Z,31.9
2018-08-12T14:21:23.371Z,32.099998
2018-08-12T14:26:25.526Z,32.299999
2018-08-12T14:31:27.901Z,32.5
2018-08-12T14:36:30.196Z,32.200001
2018-08-12T14:41:32.479Z,31.700001
2018-08-12T14:51:37.190Z,30.700001
2018-08-12T14:56:40.654Z,30.299999
2018-08-12T15:01:41.757Z,30
2018-08-12T15:06:43.925Z,30.1
2018-08-12T15:11:46.333Z,30.5
2018-08-12T15:16:48.504Z,30.700001
2018-08-12T15:21:50.768Z,30
2018-08-12T15:26:53.116Z,29.4
2018-08-12T15:31:55.425Z,28.9
2018-08-12T15:36:57.799Z,28.6
2018-08-12T15:42:00.034Z,28.4
2018-08-12T15:47:02.314Z,28.299999
2018-08-12T15:52:04.553Z,28.1
2018-08-12T15:57:06.972Z,28
2018-08-12T16:02:09.266Z,28
2018-08-12T16:07:11.407Z,27.9
2018-08-12T16:12:13.682Z,27.700001
2018-08-12T16:17:16.244Z,27.6
2018-08-12T16:22:18.363Z,27.5
2018-08-12T16:27:20.679Z,27.4
2018-08-12T16:32:22.888Z,27.4
2018-08-12T16:37:25.339Z,27.299999
2018-08-12T16:42:28.253Z,27.200001
2018-08-12T16:47:29.748Z,27.200001
2018-08-12T16:52:32.178Z,27.1
2018-08-12T16:57:34.491Z,27
2018-08-12T17:02:36.830Z,27
2018-08-12T17:07:38.946Z,26.9
2018-08-12T17:12:41.350Z,26.799999
2018-08-12T17:17:43.739Z,26.700001
2018-08-12T17:22:45.990Z,26.6
2018-08-12T17:27:48.179Z,26.5
2018-08-12T17:32:50.664Z,26.4
2018-08-12T17:37:52.817Z,26.299999
2018-08-12T17:42:55.181Z,26.1
2018-08-12T17:47:57.362Z,25.799999
2018-08-12T17:52:59.680Z,25.5
2018-08-12T17:58:01.951Z,25.200001
2018-08-12T18:03:04.309Z,24.799999
2018-08-12T18:08:06.488Z,24.5
2018-08-12T18:13:08.874Z,24
2018-08-12T18:18:11.088Z,23.799999
2018-08-12T18:23:13.448Z,23.5
2018-08-12T18:28:15.840Z,23.299999
2018-08-12T18:33:18.003Z,23.1
2018-08-12T18:38:20.239Z,23
2018-08-12T18:43:22.656Z,22.9
2018-08-12T18:48:24.920Z,22.799999
2018-08-12T18:53:27.177Z,22.799999
2018-08-12T18:58:29.666Z,22.700001
2018-08-12T19:03:31.699Z,22.700001
2018-08-12T19:08:34.075Z,22.700001
2018-08-12T19:13:36.378Z,22.799999
2018-08-12T19:18:38.728Z,22.9
2018-08-12T19:23:41.123Z,22.700001
2018-08-12T19:28:43.292Z,22.4
2018-08-12T19:33:45.611Z,22.1
2018-08-12T19:38:47.799Z,21.9
2018-08-12T19:48:52.372Z,21.6
2018-08-12T19:53:54.637Z,21.5
2018-08-12T19:58:57.180Z,21.4
2018-08-12T20:03:59.367Z,21.299999
2018-08-12T20:09:01.660Z,21.299999
2018-08-12T20:14:03.863Z,21.299999
2018-08-12T20:19:06.117Z,21.299999
2018-08-12T20:24:08.540Z,21.200001
2018-08-12T20:29:10.760Z,21
2018-08-12T20:34:13.097Z,20.799999
2018-08-12T20:39:15.447Z,20.799999
2018-08-12T20:44:17.574Z,20.5
2018-08-12T20:49:19.846Z,20.5
2018-08-12T20:54:22.251Z,20.4
2018-08-12T20:59:24.614Z,20.299999
2018-08-12T21:04:26.799Z,20.4
2018-08-12T21:09:29.163Z,20.299999
2018-08-12T21:14:31.397Z,20.299999
2018-08-12T21:19:33.718Z,20.299999
2018-08-12T21:24:35.934Z,20.299999
2018-08-12T21:29:39.976Z,20.299999
2018-08-12T21:34:40.691Z,20.299999
2018-08-12T21:39:43.028Z,20.200001
2018-08-12T21:44:45.298Z,20.200001
2018-08-12T21:49:47.533Z,20.200001
2018-08-12T21:54:49.750Z,20.1
2018-08-12T21:59:52.071Z,20.1
2018-08-12T22:04:54.604Z,20.1
2018-08-12T22:09:56.723Z,20.1
2018-08-12T22:14:59.015Z,20.1
2018-08-12T22:20:01.169Z,20
2018-08-12T22:25:03.502Z,19.9
2018-08-12T22:30:05.869Z,19.799999
2018-08-12T22:35:08.095Z,19.799999
2018-08-12T22:40:10.479Z,19.700001
2018-08-12T22:45:12.706Z,19.9
2018-08-12T22:50:15.015Z,20
2018-08-12T22:55:17.302Z,20
2018-08-12T23:00:19.674Z,19.700001
2018-08-12T23:05:22.017Z,19.6
2018-08-12T23:10:24.158Z,19.4
2018-08-12T23:15:26.575Z,19.299999
2018-08-12T23:20:28.812Z,19.200001
2018-08-12T23:25:31.183Z,19.1
2018-08-12T23:30:33.288Z,19.1
2018-08-12T23:35:35.618Z,19.1
2018-08-12T23:40:38.019Z,19.1
2018-08-12T23:45:40.375Z,19.1
2018-08-12T23:50:42.599Z,19.200001
2018-08-12T23:55:44.872Z,19.299999
